Аэропорт: Абакан. Абакан

ICAO: UNAA

METAR:
2024-04-22 21:00:00
UNAA 222100Z 00000MPS CAVOK 01/M02 Q1014 R02/CLRD65 NOSIG RMK QFE738
TAF:
2024-04-22 19:50:00
TAF UNAA 221950Z 2221/2321 18003G08MPS 9999 SCT025CB 
  TEMPO 2221/2304 26005G12MPS 4700 -SHSN 
  BECMG 2305/2309 32010G20MPS 
  BECMG 2315/2319 36005G10MPS